الصفحة الرئيسية
METAR-TAF:

METAR-TAF

مطار :

Livingstone, زامبيا

دائرة عرض: 17-49-18S, خط طول: 025-49-22E, ارتفاع: 991 متر

مراقبة الطقس الحالي

تاريخ ووقت الإصدار 6ساعات و 5 دقيقة قبل الساعة 12:00UTC
ريح 9 عقدة من الشرق/الشمال الشرقي
درجة الحرارة 29°درجة مئوية
الرطوبة 35%
ضغط 1017 hPa
الرؤية 10 كم أو أكثر
غيوم متفرقة على ارتفاع 4000 قدم

METAR: FLHN 221200Z 06009KT 9999 SCT040 29/12 Q1017 NOSIG

زمن: 20:05 (18:05 UTC)


TAF: مفقودة

أرصاد الطقس والتوقعات من أكثر من 4000 مطار (تقارير الطقس للمطار METAR والتنبؤ بالطقس بالمطارTAF).

المحطات المتاحة هي النقط الصفراء والحمراء على الخريطة.

حرك المؤشر فوق النقطة لمعرفة اسم المحطة.

ثم انقر لمعرفة أرصاد وتوقعات الطقس.

لتغيير الخارطة: اضغط على الأزرار الخضراء مع رمز الصليب الأسود للتكبير. على الزر الأخضر مع شرطة للتصغير، أو على الأسهم الخضراء للخرائط المجاورة.


METAR-TAF: